createdAt,value
2023-05-19T00:00:28.961Z,98644.81
2023-05-19T00:05:35.740Z,98655.13
2023-05-19T00:10:40.484Z,98649.06
2023-05-19T00:15:44.761Z,98647.66
2023-05-19T00:20:50.015Z,98653.94
2023-05-19T00:25:54.293Z,98651.91
2023-05-19T00:30:58.011Z,98651.91
2023-05-19T00:36:03.872Z,98647.56
2023-05-19T00:41:08.333Z,98651.09
2023-05-19T00:46:12.606Z,98655.41
2023-05-19T00:51:19.020Z,98662.47
2023-05-19T00:56:23.037Z,98660.38
2023-05-19T01:01:28.089Z,98664.88
2023-05-19T01:06:33.520Z,98669.28
2023-05-19T01:11:37.319Z,98667.34
2023-05-19T01:16:45.249Z,98669.69
2023-05-19T01:22:14.573Z,98683.72
2023-05-19T01:27:42.784Z,98667.38
2023-05-19T01:32:50.263Z,98666.41
2023-05-19T01:37:55.949Z,98673.50
2023-05-19T01:43:02.652Z,98668.16
2023-05-19T01:48:10.805Z,98681.88
2023-05-19T01:53:16.163Z,98672.31
2023-05-19T01:58:26.223Z,98678.59
2023-05-19T02:03:49.738Z,98681.22
2023-05-19T02:08:59.791Z,98679.41
2023-05-19T02:14:09.110Z,98688.31
2023-05-19T02:19:24.014Z,98687.47
2023-05-19T02:24:28.196Z,98698.94
2023-05-19T02:29:32.041Z,98706.81
2023-05-19T02:34:37.684Z,98707.81
2023-05-19T02:39:42.159Z,98700.00
2023-05-19T02:44:46.404Z,98711.56
2023-05-19T02:49:51.663Z,98723.72
2023-05-19T02:54:55.661Z,98729.03
2023-05-19T02:59:59.669Z,98736.16
2023-05-19T03:05:05.408Z,98740.31
2023-05-19T03:10:10.674Z,98735.06
2023-05-19T03:15:15.202Z,98737.88
2023-05-19T03:20:20.675Z,98743.13
2023-05-19T03:25:24.779Z,98746.59
2023-05-19T03:30:28.744Z,98756.09
2023-05-19T03:35:44.601Z,98757.84
2023-05-19T03:40:48.964Z,98755.13
2023-05-19T03:45:53.787Z,98766.38
2023-05-19T03:51:19.016Z,98772.41
2023-05-19T03:56:26.768Z,98769.84
2023-05-19T04:01:30.957Z,98775.47
2023-05-19T04:06:36.604Z,98781.16
2023-05-19T04:11:40.877Z,98785.16
2023-05-19T04:16:44.853Z,98783.25
2023-05-19T04:21:50.074Z,98781.19
2023-05-19T04:26:54.496Z,98795.69
2023-05-19T04:31:58.630Z,98792.84
2023-05-19T04:37:04.819Z,98795.75
2023-05-19T04:42:09.211Z,98790.03
2023-05-19T04:47:15.227Z,98803.50
2023-05-19T04:52:22.083Z,98799.47
2023-05-19T04:57:27.412Z,98792.94
2023-05-19T05:02:32.339Z,98804.25
2023-05-19T05:07:38.498Z,98807.25
2023-05-19T05:12:43.689Z,98812.69
2023-05-19T05:17:48.099Z,98809.03
2023-05-19T05:22:54.772Z,98824.56
2023-05-19T05:28:05.365Z,98821.81
2023-05-19T05:33:12.115Z,98815.66
2023-05-19T05:38:19.552Z,98812.34
2023-05-19T05:43:23.671Z,98818.78
2023-05-19T05:48:33.838Z,98828.13
2023-05-19T05:53:44.167Z,98827.19
2023-05-19T05:58:49.593Z,98845.09
2023-05-19T06:03:53.497Z,98842.34
2023-05-19T06:09:01.542Z,98838.66
2023-05-19T06:14:06.040Z,98847.09
2023-05-19T06:19:25.567Z,98847.22
2023-05-19T06:24:31.072Z,98850.56
2023-05-19T06:29:35.060Z,98849.22
2023-05-19T06:34:41.886Z,98852.69
2023-05-19T06:39:47.724Z,98843.69
2023-05-19T06:44:52.712Z,98856.25
2023-05-19T06:49:56.933Z,98852.81
2023-05-19T06:55:05.923Z,98858.56
2023-05-19T07:00:15.874Z,98854.75
2023-05-19T07:05:24.869Z,98858.66
2023-05-19T07:10:34.441Z,98859.09
2023-05-19T07:15:39.776Z,98872.31
2023-05-19T07:20:43.747Z,98855.72
2023-05-19T07:25:49.135Z,98855.88
2023-05-19T07:30:53.226Z,98855.88
2023-05-19T07:35:56.803Z,98853.28
2023-05-19T07:41:02.119Z,98852.84
2023-05-19T07:46:06.513Z,98856.50
2023-05-19T07:51:10.848Z,98860.38
2023-05-19T07:56:16.085Z,98858.84
2023-05-19T08:01:19.947Z,98858.69
2023-05-19T08:06:25.384Z,98861.50
2023-05-19T08:11:30.508Z,98862.03
2023-05-19T08:16:34.331Z,98868.13
2023-05-19T08:21:37.816Z,98874.97
2023-05-19T08:26:42.920Z,98880.63
2023-05-19T08:31:46.552Z,98880.81
2023-05-19T08:36:50.569Z,98873.63
2023-05-19T08:41:55.744Z,98880.75
2023-05-19T08:47:05.175Z,98872.16
2023-05-19T08:52:16.423Z,98881.06
2023-05-19T08:57:22.625Z,98876.97
2023-05-19T09:02:26.670Z,98871.69
2023-05-19T09:07:34.867Z,98882.44
2023-05-19T09:12:39.802Z,98877.59
2023-05-19T09:17:44.883Z,98879.75
2023-05-19T09:22:48.476Z,98871.25
2023-05-19T09:27:55.841Z,98877.47
2023-05-19T09:32:59.448Z,98875.38
2023-05-19T09:38:03.022Z,98882.09
2023-05-19T09:43:09.799Z,98885.53
2023-05-19T09:48:14.040Z,98883.16
2023-05-19T09:53:19.034Z,98873.75
2023-05-19T09:58:24.378Z,98881.31
2023-05-19T10:03:28.168Z,98878.53
2023-05-19T10:08:32.785Z,98876.19
2023-05-19T10:13:39.432Z,98872.53
2023-05-19T10:18:43.452Z,98874.72
2023-05-19T10:23:47.556Z,98874.50
2023-05-19T10:28:52.784Z,98881.03
2023-05-19T10:34:15.401Z,98879.22
2023-05-19T10:39:23.298Z,98877.19
2023-05-19T10:44:41.002Z,98878.56
2023-05-19T10:49:44.613Z,98862.94
2023-05-19T10:54:48.051Z,98875.03
2023-05-19T10:59:53.066Z,98870.28
2023-05-19T11:04:58.658Z,98850.63
2023-05-19T11:10:07.307Z,98845.00
2023-05-19T11:15:14.700Z,98854.41
2023-05-19T11:20:27.113Z,98866.34
2023-05-19T11:25:43.806Z,98847.94
2023-05-19T11:30:51.888Z,98852.88
2023-05-19T11:35:58.251Z,98856.38
2023-05-19T11:41:02.238Z,98851.63
2023-05-19T11:46:07.178Z,98852.50
2023-05-19T11:51:11.073Z,98847.81
2023-05-19T11:56:15.328Z,98841.63
2023-05-19T12:01:20.237Z,98829.91
2023-05-19T12:06:23.832Z,98840.69
2023-05-19T12:11:30.188Z,98829.06
2023-05-19T12:16:38.196Z,98846.59
2023-05-19T12:21:42.654Z,98830.16
2023-05-19T12:26:46.149Z,98844.25
2023-05-19T12:31:51.266Z,98844.28
2023-05-19T12:36:54.737Z,98833.91
2023-05-19T12:42:03.392Z,98841.91
2023-05-19T12:47:08.350Z,98837.59
2023-05-19T12:52:15.254Z,98844.84
2023-05-19T12:57:18.711Z,98832.94
2023-05-19T13:02:26.064Z,98835.16
2023-05-19T13:07:29.970Z,98835.19
2023-05-19T13:12:33.613Z,98822.59
2023-05-19T13:17:38.663Z,98830.13
2023-05-19T13:22:42.268Z,98847.63
2023-05-19T13:27:46.400Z,98822.88
2023-05-19T13:32:52.627Z,98829.44
2023-05-19T13:37:56.430Z,98824.03
2023-05-19T13:43:00.216Z,98833.38
2023-05-19T13:48:07.489Z,98830.66
2023-05-19T13:53:11.690Z,98844.59
2023-05-19T13:58:17.085Z,98831.50
2023-05-19T14:03:22.554Z,98839.88
2023-05-19T14:08:26.262Z,98845.25
2023-05-19T14:13:35.194Z,98834.53
2023-05-19T14:18:42.154Z,98837.75
2023-05-19T14:23:46.469Z,98843.09
2023-05-19T14:28:49.997Z,98845.84
2023-05-19T14:33:55.061Z,98863.22
2023-05-19T14:38:58.874Z,98867.19
2023-05-19T14:44:03.290Z,98860.56
2023-05-19T14:49:08.156Z,98862.28
2023-05-19T14:54:11.972Z,98865.63
2023-05-19T14:59:15.819Z,98869.91
2023-05-19T15:04:21.163Z,98870.03
2023-05-19T15:09:24.948Z,98864.44
2023-05-19T15:14:30.522Z,98855.81
2023-05-19T15:19:36.310Z,98859.03
2023-05-19T15:24:41.249Z,98865.31
2023-05-19T15:29:45.082Z,98873.63
2023-05-19T15:34:50.535Z,98874.69
2023-05-19T15:39:55.129Z,98882.13
2023-05-19T15:44:59.139Z,98877.16
2023-05-19T15:50:05.088Z,98879.00
2023-05-19T15:55:10.386Z,98884.03
2023-05-19T16:00:15.356Z,98890.41
2023-05-19T16:05:21.300Z,98893.75
2023-05-19T16:10:25.780Z,98898.19
2023-05-19T16:15:30.882Z,98909.38
2023-05-19T16:20:37.111Z,98911.09
2023-05-19T16:25:41.831Z,98910.41
2023-05-19T16:30:46.794Z,98916.28
2023-05-19T16:36:07.408Z,98922.13
2023-05-19T16:41:19.649Z,98920.22
2023-05-19T16:47:36.285Z,98932.72
2023-05-19T16:53:26.463Z,98937.06
2023-05-19T17:04:40.011Z,98950.25
2023-05-19T17:09:45.724Z,98950.13
2023-05-19T17:14:50.485Z,98961.16
2023-05-19T17:19:54.402Z,98977.94
2023-05-19T17:24:59.305Z,98979.88
2023-05-19T17:30:03.546Z,98974.97
2023-05-19T17:35:09.704Z,98979.13
2023-05-19T17:40:15.341Z,98983.16
2023-05-19T17:45:19.024Z,98982.91
2023-05-19T17:50:22.548Z,98997.53
2023-05-19T17:55:30.459Z,98993.38
2023-05-19T18:00:34.562Z,98998.66
2023-05-19T18:05:40.162Z,99023.19
2023-05-19T18:10:46.181Z,99016.13
2023-05-19T18:15:49.981Z,99007.75
2023-05-19T18:20:54.906Z,99015.69
2023-05-19T18:25:59.984Z,99007.88
2023-05-19T18:31:05.958Z,99022.28
2023-05-19T18:36:10.107Z,99014.50
2023-05-19T18:41:15.738Z,99010.78
2023-05-19T18:46:19.668Z,99013.88
2023-05-19T18:51:23.725Z,99010.06
2023-05-19T18:56:31.138Z,99012.75
2023-05-19T19:01:35.126Z,99006.59
2023-05-19T19:06:38.687Z,99007.59
2023-05-19T19:11:43.618Z,99012.59
2023-05-19T19:16:47.172Z,99000.81
2023-05-19T19:21:50.765Z,99009.59
2023-05-19T19:26:57.017Z,99011.81
2023-05-19T19:32:00.582Z,99019.13
2023-05-19T19:37:05.330Z,99008.50
2023-05-19T19:42:10.341Z,99021.91
2023-05-19T19:47:14.172Z,99034.28
2023-05-19T19:52:18.765Z,99032.09
2023-05-19T19:57:24.083Z,99029.88
2023-05-19T20:02:27.861Z,99026.03
2023-05-19T20:07:32.272Z,99026.84
2023-05-19T20:12:37.593Z,99031.03
2023-05-19T20:17:41.114Z,99024.56
2023-05-19T20:22:46.159Z,99027.69
2023-05-19T20:27:51.427Z,99024.59
2023-05-19T20:32:55.387Z,99019.28
2023-05-19T20:37:58.963Z,99020.03
2023-05-19T20:43:03.915Z,99015.63
2023-05-19T20:48:07.763Z,99010.91
2023-05-19T20:53:11.393Z,99019.38
2023-05-19T20:58:16.611Z,99006.22
2023-05-19T21:03:23.311Z,98995.03
2023-05-19T21:08:27.594Z,99007.00
2023-05-19T21:13:33.936Z,99012.56
2023-05-19T21:18:37.479Z,98997.41
2023-05-19T21:23:41.132Z,99000.53
2023-05-19T21:28:46.369Z,99006.09
2023-05-19T21:33:50.123Z,99008.09
2023-05-19T21:38:54.460Z,99013.34
2023-05-19T21:43:59.606Z,99014.09
2023-05-19T21:49:03.041Z,99011.72
2023-05-19T21:54:06.880Z,99022.34
2023-05-19T21:59:12.185Z,99010.38
2023-05-19T22:04:17.875Z,99006.66
2023-05-19T22:09:22.108Z,98994.38
2023-05-19T22:14:26.971Z,99003.44
2023-05-19T22:19:30.470Z,99009.75
2023-05-19T22:24:34.325Z,99006.94
2023-05-19T22:29:39.865Z,98992.00
2023-05-19T22:34:43.675Z,98997.31
2023-05-19T22:39:47.565Z,98991.53
2023-05-19T22:44:52.937Z,98989.16
2023-05-19T22:49:57.239Z,99002.28
2023-05-19T22:55:01.194Z,98994.25
2023-05-19T23:00:09.906Z,98998.78
2023-05-19T23:05:13.484Z,98994.41
2023-05-19T23:10:17.384Z,99001.69
2023-05-19T23:15:22.725Z,99004.09
2023-05-19T23:20:26.322Z,98998.41
2023-05-19T23:25:29.893Z,98993.03
2023-05-19T23:30:38.194Z,98977.59
2023-05-19T23:35:41.946Z,98966.22
2023-05-19T23:40:45.528Z,98959.69
2023-05-19T23:45:50.716Z,98961.66
2023-05-19T23:50:54.448Z,98968.84
2023-05-19T23:55:58.810Z,98970.94
